sensor_id;sensor_type;location;lat;lon;timestamp;pressure;altitude;pressure_sealevel;temperature;humidity
60099;BME280;62818;49.394;8.686;2023-03-01T00:00:21;101364.31;;;1.85;62.14
60099;BME280;62818;49.394;8.686;2023-03-01T00:01:25;101363.75;;;1.94;62.81
60099;BME280;62818;49.394;8.686;2023-03-01T00:02:28;101360.13;;;1.68;63.44
60099;BME280;62818;49.394;8.686;2023-03-01T00:03:28;101353.66;;;1.88;63.04
60099;BME280;62818;49.394;8.686;2023-03-01T00:04:29;101364.31;;;1.71;63.12
60099;BME280;62818;49.394;8.686;2023-03-01T00:05:29;101370.84;;;1.64;63.45
60099;BME280;62818;49.394;8.686;2023-03-01T00:06:30;101361.78;;;1.83;63.79
60099;BME280;62818;49.394;8.686;2023-03-01T00:07:30;101363.97;;;1.63;63.64
60099;BME280;62818;49.394;8.686;2023-03-01T00:08:31;101363.41;;;1.72;63.35
60099;BME280;62818;49.394;8.686;2023-03-01T00:09:33;101358.53;;;1.66;64.04
60099;BME280;62818;49.394;8.686;2023-03-01T00:10:33;101362.84;;;1.52;64.60
60099;BME280;62818;49.394;8.686;2023-03-01T00:11:34;101358.63;;;1.50;64.75
60099;BME280;62818;49.394;8.686;2023-03-01T00:12:34;101366.56;;;1.48;64.39
60099;BME280;62818;49.394;8.686;2023-03-01T00:13:36;101365.94;;;1.45;65.29
60099;BME280;62818;49.394;8.686;2023-03-01T00:14:37;101362.09;;;1.50;64.87
60099;BME280;62818;49.394;8.686;2023-03-01T00:15:38;101361.16;;;1.66;64.65
60099;BME280;62818;49.394;8.686;2023-03-01T00:16:41;101361.16;;;1.66;64.37
60099;BME280;62818;49.394;8.686;2023-03-01T00:17:43;101367.81;;;1.43;64.54
60099;BME280;62818;49.394;8.686;2023-03-01T00:18:44;101372.44;;;1.52;64.88
60099;BME280;62818;49.394;8.686;2023-03-01T00:19:45;101360.97;;;1.55;64.53
60099;BME280;62818;49.394;8.686;2023-03-01T00:20:53;101368.63;;;1.58;64.64
60099;BME280;62818;49.394;8.686;2023-03-01T00:21:54;101357.63;;;1.52;65.26
60099;BME280;62818;49.394;8.686;2023-03-01T00:22:54;101363.22;;;1.46;64.97
60099;BME280;62818;49.394;8.686;2023-03-01T00:23:55;101366.41;;;1.52;65.31
60099;BME280;62818;49.394;8.686;2023-03-01T00:24:56;101363.13;;;1.62;65.53
60099;BME280;62818;49.394;8.686;2023-03-01T00:25:57;101369.56;;;1.42;65.34
60099;BME280;62818;49.394;8.686;2023-03-01T00:26:57;101364.44;;;1.41;65.23
60099;BME280;62818;49.394;8.686;2023-03-01T00:27:58;101361.72;;;1.42;65.96
60099;BME280;62818;49.394;8.686;2023-03-01T00:28:59;101368.91;;;1.39;65.59
60099;BME280;62818;49.394;8.686;2023-03-01T00:30:00;101370.31;;;1.44;65.22
60099;BME280;62818;49.394;8.686;2023-03-01T00:31:08;101373.50;;;1.49;65.72
60099;BME280;62818;49.394;8.686;2023-03-01T00:32:14;101376.72;;;1.39;65.50
60099;BME280;62818;49.394;8.686;2023-03-01T00:33:14;101366.97;;;1.42;65.46
60099;BME280;62818;49.394;8.686;2023-03-01T00:34:15;101372.00;;;1.31;66.53
60099;BME280;62818;49.394;8.686;2023-03-01T00:35:16;101372.19;;;1.42;65.90
60099;BME280;62818;49.394;8.686;2023-03-01T00:36:16;101375.63;;;1.29;65.83
60099;BME280;62818;49.394;8.686;2023-03-01T00:37:17;101379.28;;;1.40;65.99
60099;BME280;62818;49.394;8.686;2023-03-01T00:38:17;101383.34;;;1.30;66.50
60099;BME280;62818;49.394;8.686;2023-03-01T00:39:18;101380.00;;;1.42;65.86
60099;BME280;62818;49.394;8.686;2023-03-01T00:40:18;101377.59;;;1.39;66.12
60099;BME280;62818;49.394;8.686;2023-03-01T00:41:20;101377.97;;;1.47;65.96
60099;BME280;62818;49.394;8.686;2023-03-01T00:42:22;101373.19;;;1.40;66.00
60099;BME280;62818;49.394;8.686;2023-03-01T00:43:23;101375.16;;;1.50;65.75
60099;BME280;62818;49.394;8.686;2023-03-01T00:44:23;101384.69;;;1.52;65.70
60099;BME280;62818;49.394;8.686;2023-03-01T00:45:24;101383.53;;;1.84;65.25
60099;BME280;62818;49.394;8.686;2023-03-01T00:46:26;101376.81;;;1.80;65.11
60099;BME280;62818;49.394;8.686;2023-03-01T00:47:29;101379.06;;;1.86;64.86
60099;BME280;62818;49.394;8.686;2023-03-01T00:48:29;101374.88;;;1.55;64.60
60099;BME280;62818;49.394;8.686;2023-03-01T00:49:30;101387.84;;;1.42;65.68
60099;BME280;62818;49.394;8.686;2023-03-01T00:50:31;101384.97;;;1.47;65.43
60099;BME280;62818;49.394;8.686;2023-03-01T00:51:31;101387.47;;;1.48;66.70
60099;BME280;62818;49.394;8.686;2023-03-01T00:52:32;101379.06;;;1.43;66.15
60099;BME280;62818;49.394;8.686;2023-03-01T00:53:33;101382.06;;;1.52;65.23
60099;BME280;62818;49.394;8.686;2023-03-01T00:54:34;101386.53;;;1.64;65.82
60099;BME280;62818;49.394;8.686;2023-03-01T00:55:35;101383.94;;;1.49;66.05
60099;BME280;62818;49.394;8.686;2023-03-01T00:56:36;101383.00;;;1.65;66.13
60099;BME280;62818;49.394;8.686;2023-03-01T00:57:36;101379.81;;;1.60;65.57
60099;BME280;62818;49.394;8.686;2023-03-01T00:58:38;101376.81;;;1.80;65.52
60099;BME280;62818;49.394;8.686;2023-03-01T00:59:38;101384.75;;;1.50;66.08
60099;BME280;62818;49.394;8.686;2023-03-01T01:00:39;101377.41;;;1.42;66.07
60099;BME280;62818;49.394;8.686;2023-03-01T01:01:39;101386.63;;;1.48;65.93
60099;BME280;62818;49.394;8.686;2023-03-01T01:02:40;101380.75;;;1.44;66.17
60099;BME280;62818;49.394;8.686;2023-03-01T01:03:41;101384.28;;;1.43;65.91
60099;BME280;62818;49.394;8.686;2023-03-01T01:04:41;101389.72;;;1.40;66.40
60099;BME280;62818;49.394;8.686;2023-03-01T01:05:42;101375.38;;;1.47;65.88
60099;BME280;62818;49.394;8.686;2023-03-01T01:06:44;101376.25;;;1.32;66.44
60099;BME280;62818;49.394;8.686;2023-03-01T01:07:47;101369.56;;;1.14;66.79
60099;BME280;62818;49.394;8.686;2023-03-01T01:08:49;101368.81;;;1.12;66.97
60099;BME280;62818;49.394;8.686;2023-03-01T01:09:50;101359.47;;;1.22;66.94
60099;BME280;62818;49.394;8.686;2023-03-01T01:10:51;101356.13;;;1.34;66.62
60099;BME280;62818;49.394;8.686;2023-03-01T01:11:51;101363.69;;;1.25;67.26
60099;BME280;62818;49.394;8.686;2023-03-01T01:12:51;101358.25;;;1.14;67.50
60099;BME280;62818;49.394;8.686;2023-03-01T01:13:52;101359.13;;;1.14;67.25
60099;BME280;62818;49.394;8.686;2023-03-01T01:14:53;101355.66;;;1.14;67.02
60099;BME280;62818;49.394;8.686;2023-03-01T01:15:54;101352.78;;;1.18;66.95
60099;BME280;62818;49.394;8.686;2023-03-01T01:16:55;101358.16;;;1.15;67.00
60099;BME280;62818;49.394;8.686;2023-03-01T01:17:55;101345.00;;;1.17;66.98
60099;BME280;62818;49.394;8.686;2023-03-01T01:18:56;101348.00;;;1.11;67.44
60099;BME280;62818;49.394;8.686;2023-03-01T01:19:57;101343.06;;;1.34;67.15
60099;BME280;62818;49.394;8.686;2023-03-01T01:21:03;101347.53;;;1.18;67.21
60099;BME280;62818;49.394;8.686;2023-03-01T01:22:08;101337.81;;;1.06;67.75
60099;BME280;62818;49.394;8.686;2023-03-01T01:23:09;101339.31;;;1.10;67.54
60099;BME280;62818;49.394;8.686;2023-03-01T01:24:10;101339.13;;;1.13;67.15
60099;BME280;62818;49.394;8.686;2023-03-01T01:25:11;101327.31;;;1.22;67.33
60099;BME280;62818;49.394;8.686;2023-03-01T01:26:15;101338.59;;;1.22;67.13
60099;BME280;62818;49.394;8.686;2023-03-01T01:27:18;101330.56;;;1.11;67.14
60099;BME280;62818;49.394;8.686;2023-03-01T01:28:18;101335.78;;;1.11;67.80
60099;BME280;62818;49.394;8.686;2023-03-01T01:29:18;101322.63;;;1.13;67.73
60099;BME280;62818;49.394;8.686;2023-03-01T01:30:19;101326.25;;;1.10;67.08
60099;BME280;62818;49.394;8.686;2023-03-01T01:31:21;101317.63;;;1.10;67.78
60099;BME280;62818;49.394;8.686;2023-03-01T01:32:23;101319.00;;;1.15;67.05
60099;BME280;62818;49.394;8.686;2023-03-01T01:33:24;101309.13;;;1.20;67.08
60099;BME280;62818;49.394;8.686;2023-03-01T01:34:25;101312.66;;;1.19;66.80
60099;BME280;62818;49.394;8.686;2023-03-01T01:35:25;101312.00;;;1.16;67.45
60099;BME280;62818;49.394;8.686;2023-03-01T01:36:27;101312.84;;;1.16;67.20
60099;BME280;62818;49.394;8.686;2023-03-01T01:37:28;101307.81;;;1.13;67.50
60099;BME280;62818;49.394;8.686;2023-03-01T01:38:31;101314.34;;;1.20;67.33
60099;BME280;62818;49.394;8.686;2023-03-01T01:39:32;101301.41;;;1.19;67.10
60099;BME280;62818;49.394;8.686;2023-03-01T01:40:32;101300.72;;;1.15;67.15
60099;BME280;62818;49.394;8.686;2023-03-01T01:41:33;101302.59;;;1.13;67.25
60099;BME280;62818;49.394;8.686;2023-03-01T01:42:33;101304.56;;;1.10;67.30
60099;BME280;62818;49.394;8.686;2023-03-01T01:43:37;101303.63;;;1.11;67.76
60099;BME280;62818;49.394;8.686;2023-03-01T01:44:44;101305.94;;;1.15;67.75
60099;BME280;62818;49.394;8.686;2023-03-01T01:45:47;101308.75;;;1.12;67.54
60099;BME280;62818;49.394;8.686;2023-03-01T01:47:05;101306.16;;;1.12;67.35
60099;BME280;62818;49.394;8.686;2023-03-01T01:48:17;101307.25;;;1.08;68.21
60099;BME280;62818;49.394;8.686;2023-03-01T01:49:32;101303.91;;;1.20;67.99
60099;BME280;62818;49.394;8.686;2023-03-01T01:50:39;101307.16;;;1.10;67.67
60099;BME280;62818;49.394;8.686;2023-03-01T01:51:44;101301.47;;;1.17;68.02
60099;BME280;62818;49.394;8.686;2023-03-01T01:52:49;101303.81;;;1.08;67.77
60099;BME280;62818;49.394;8.686;2023-03-01T01:53:58;101299.06;;;1.14;67.75
60099;BME280;62818;49.394;8.686;2023-03-01T01:55:07;101300.16;;;1.10;67.52
60099;BME280;62818;49.394;8.686;2023-03-01T01:56:12;101298.31;;;1.12;67.93
60099;BME280;62818;49.394;8.686;2023-03-01T01:57:22;101298.28;;;1.26;67.78
60099;BME280;62818;49.394;8.686;2023-03-01T01:58:29;101289.53;;;1.13;67.48
60099;BME280;62818;49.394;8.686;2023-03-01T01:59:31;101301.75;;;1.13;67.53
60099;BME280;62818;49.394;8.686;2023-03-01T02:00:34;101290.66;;;1.23;67.67
60099;BME280;62818;49.394;8.686;2023-03-01T02:01:34;101296.63;;;1.25;67.50
60099;BME280;62818;49.394;8.686;2023-03-01T02:02:36;101287.22;;;1.23;66.94
60099;BME280;62818;49.394;8.686;2023-03-01T02:03:39;101295.41;;;1.31;67.38
60099;BME280;62818;49.394;8.686;2023-03-01T02:04:44;101288.88;;;1.24;67.22
60099;BME280;62818;49.394;8.686;2023-03-01T02:06:06;101294.94;;;1.24;67.50
60099;BME280;62818;49.394;8.686;2023-03-01T02:07:20;101289.72;;;1.24;67.38
60099;BME280;62818;49.394;8.686;2023-03-01T02:08:26;101285.44;;;1.09;67.50
60099;BME280;62818;49.394;8.686;2023-03-01T02:09:30;101286.66;;;1.32;67.59
60099;BME280;62818;49.394;8.686;2023-03-01T02:10:33;101284.69;;;1.21;67.47
60099;BME280;62818;49.394;8.686;2023-03-01T02:11:35;101280.75;;;1.28;66.92
60099;BME280;62818;49.394;8.686;2023-03-01T02:12:38;101276.56;;;1.40;66.92
60099;BME280;62818;49.394;8.686;2023-03-01T02:13:40;101276.66;;;1.38;67.55
60099;BME280;62818;49.394;8.686;2023-03-01T02:14:41;101276.44;;;1.56;66.58
60099;BME280;62818;49.394;8.686;2023-03-01T02:15:43;101282.25;;;1.32;66.77
60099;BME280;62818;49.394;8.686;2023-03-01T02:16:44;101280.19;;;1.37;67.57
60099;BME280;62818;49.394;8.686;2023-03-01T02:17:44;101281.03;;;1.38;67.22
60099;BME280;62818;49.394;8.686;2023-03-01T02:18:45;101280.59;;;1.31;67.09
60099;BME280;62818;49.394;8.686;2023-03-01T02:22:31;101276.09;;;1.33;67.29
60099;BME280;62818;49.394;8.686;2023-03-01T02:23:33;101272.56;;;1.20;67.15
60099;BME280;62818;49.394;8.686;2023-03-01T02:25:50;101268.84;;;1.24;67.43
60099;BME280;62818;49.394;8.686;2023-03-01T02:26:56;101276.88;;;1.07;67.65
60099;BME280;62818;49.394;8.686;2023-03-01T02:29:13;101284.13;;;1.30;67.01
60099;BME280;62818;49.394;8.686;2023-03-01T02:30:14;101274.63;;;1.15;67.51
60099;BME280;62818;49.394;8.686;2023-03-01T02:31:18;101264.56;;;1.09;67.49
60099;BME280;62818;49.394;8.686;2023-03-01T02:32:40;101275.00;;;1.09;68.40
60099;BME280;62818;49.394;8.686;2023-03-01T02:33:43;101265.66;;;1.33;67.60
60099;BME280;62818;49.394;8.686;2023-03-01T02:34:44;101263.25;;;1.16;67.55
60099;BME280;62818;49.394;8.686;2023-03-01T02:35:45;101268.53;;;1.15;67.70
60099;BME280;62818;49.394;8.686;2023-03-01T02:36:52;101270.31;;;1.00;67.97
60099;BME280;62818;49.394;8.686;2023-03-01T02:37:56;101261.78;;;1.12;68.20
60099;BME280;62818;49.394;8.686;2023-03-01T02:39:03;101262.31;;;1.17;68.46
60099;BME280;62818;49.394;8.686;2023-03-01T02:40:09;101258.34;;;1.52;67.02
60099;BME280;62818;49.394;8.686;2023-03-01T02:41:16;101254.34;;;1.47;67.50
60099;BME280;62818;49.394;8.686;2023-03-01T02:42:22;101257.53;;;1.38;67.21
60099;BME280;62818;49.394;8.686;2023-03-01T02:43:29;101261.19;;;1.07;67.80
60099;BME280;62818;49.394;8.686;2023-03-01T02:44:32;101258.03;;;1.02;68.01
60099;BME280;62818;49.394;8.686;2023-03-01T02:45:33;101259.34;;;1.09;68.12
60099;BME280;62818;49.394;8.686;2023-03-01T02:46:33;101258.13;;;1.01;68.14
60099;BME280;62818;49.394;8.686;2023-03-01T02:47:42;101254.97;;;1.10;68.23
60099;BME280;62818;49.394;8.686;2023-03-01T02:49:16;101248.50;;;1.15;68.30
60099;BME280;62818;49.394;8.686;2023-03-01T02:50:44;101251.50;;;1.09;68.21
60099;BME280;62818;49.394;8.686;2023-03-01T02:53:26;101260.25;;;1.08;68.53
60099;BME280;62818;49.394;8.686;2023-03-01T02:54:54;101254.84;;;0.97;69.15
60099;BME280;62818;49.394;8.686;2023-03-01T02:55:59;101249.09;;;0.92;68.77
60099;BME280;62818;49.394;8.686;2023-03-01T02:57:00;101255.41;;;1.02;68.89
60099;BME280;62818;49.394;8.686;2023-03-01T02:58:02;101247.38;;;0.91;69.24
60099;BME280;62818;49.394;8.686;2023-03-01T02:59:04;101249.72;;;1.10;68.70
60099;BME280;62818;49.394;8.686;2023-03-01T03:00:09;101239.38;;;0.94;69.01
60099;BME280;62818;49.394;8.686;2023-03-01T03:01:20;101247.56;;;1.02;68.53
60099;BME280;62818;49.394;8.686;2023-03-01T03:02:26;101241.50;;;1.02;69.00
60099;BME280;62818;49.394;8.686;2023-03-01T03:03:38;101243.66;;;1.09;68.82
60099;BME280;62818;49.394;8.686;2023-03-01T03:04:39;101243.50;;;1.12;68.96
60099;BME280;62818;49.394;8.686;2023-03-01T03:05:40;101240.69;;;1.01;68.92
60099;BME280;62818;49.394;8.686;2023-03-01T03:06:41;101239.84;;;0.87;69.26
60099;BME280;62818;49.394;8.686;2023-03-01T03:07:44;101234.72;;;0.85;69.68
60099;BME280;62818;49.394;8.686;2023-03-01T03:08:46;101234.16;;;0.94;69.42
60099;BME280;62818;49.394;8.686;2023-03-01T03:09:47;101240.78;;;1.00;69.24
60099;BME280;62818;49.394;8.686;2023-03-01T03:10:47;101237.53;;;0.96;68.86
60099;BME280;62818;49.394;8.686;2023-03-01T03:11:48;101237.53;;;0.96;68.47
60099;BME280;62818;49.394;8.686;2023-03-01T03:13:09;101230.78;;;1.20;68.94
60099;BME280;62818;49.394;8.686;2023-03-01T03:14:13;101228.63;;;1.13;68.39
60099;BME280;62818;49.394;8.686;2023-03-01T03:15:15;101225.75;;;1.17;68.88
60099;BME280;62818;49.394;8.686;2023-03-01T03:16:15;101233.22;;;1.09;68.70
60099;BME280;62818;49.394;8.686;2023-03-01T03:17:16;101225.91;;;1.42;68.48
60099;BME280;62818;49.394;8.686;2023-03-01T03:18:17;101229.19;;;1.32;67.67
60099;BME280;62818;49.394;8.686;2023-03-01T03:19:18;101225.69;;;1.19;68.36
60099;BME280;62818;49.394;8.686;2023-03-01T03:20:20;101229.09;;;1.33;67.87
60099;BME280;62818;49.394;8.686;2023-03-01T03:21:22;101226.13;;;1.11;67.62
60099;BME280;62818;49.394;8.686;2023-03-01T03:22:22;101231.34;;;1.11;68.59
60099;BME280;62818;49.394;8.686;2023-03-01T03:23:23;101224.91;;;1.17;67.71
60099;BME280;62818;49.394;8.686;2023-03-01T03:24:24;101219.22;;;1.10;68.25
60099;BME280;62818;49.394;8.686;2023-03-01T03:25:26;101215.63;;;0.99;68.70
60099;BME280;62818;49.394;8.686;2023-03-01T03:26:27;101221.66;;;1.13;69.08
60099;BME280;62818;49.394;8.686;2023-03-01T03:27:28;101220.16;;;1.23;68.09
60099;BME280;62818;49.394;8.686;2023-03-01T03:28:32;101221.84;;;0.96;68.73
60099;BME280;62818;49.394;8.686;2023-03-01T03:29:34;101217.38;;;0.84;69.31
60099;BME280;62818;49.394;8.686;2023-03-01T03:30:36;101219.81;;;0.87;69.04
60099;BME280;62818;49.394;8.686;2023-03-01T03:31:39;101210.00;;;1.05;68.67
60099;BME280;62818;49.394;8.686;2023-03-01T03:32:40;101213.00;;;0.85;68.86
60099;BME280;62818;49.394;8.686;2023-03-01T03:33:42;101210.66;;;0.80;69.61
60099;BME280;62818;49.394;8.686;2023-03-01T03:34:43;101212.16;;;0.84;69.79
60099;BME280;62818;49.394;8.686;2023-03-01T03:35:46;101205.63;;;0.91;69.17
60099;BME280;62818;49.394;8.686;2023-03-01T03:36:47;101213.66;;;0.88;68.89
60099;BME280;62818;49.394;8.686;2023-03-01T03:37:48;101215.50;;;0.86;69.90
60099;BME280;62818;49.394;8.686;2023-03-01T03:39:01;101213.28;;;0.80;69.40
60099;BME280;62818;49.394;8.686;2023-03-01T03:40:02;101213.06;;;0.97;69.11
60099;BME280;62818;49.394;8.686;2023-03-01T03:41:06;101209.25;;;0.89;69.06
60099;BME280;62818;49.394;8.686;2023-03-01T03:42:07;101217.75;;;0.78;69.46
60099;BME280;62818;49.394;8.686;2023-03-01T03:43:20;101215.31;;;0.75;69.90
60099;BME280;62818;49.394;8.686;2023-03-01T03:44:22;101205.84;;;0.74;69.78
60099;BME280;62818;49.394;8.686;2023-03-01T03:45:23;101210.88;;;0.77;69.52
60099;BME280;62818;49.394;8.686;2023-03-01T03:46:23;101207.13;;;0.81;69.70
60099;BME280;62818;49.394;8.686;2023-03-01T03:47:24;101203.59;;;0.82;69.57
60099;BME280;62818;49.394;8.686;2023-03-01T03:48:25;101210.66;;;0.80;69.62
60099;BME280;62818;49.394;8.686;2023-03-01T03:49:26;101209.81;;;0.80;69.75
60099;BME280;62818;49.394;8.686;2023-03-01T03:50:27;101204.16;;;0.87;70.17
60099;BME280;62818;49.394;8.686;2023-03-01T03:51:27;101208.06;;;0.80;69.88
60099;BME280;62818;49.394;8.686;2023-03-01T03:52:28;101204.53;;;0.81;69.47
60099;BME280;62818;49.394;8.686;2023-03-01T03:53:29;101205.94;;;0.72;70.03
60099;BME280;62818;49.394;8.686;2023-03-01T03:54:29;101208.06;;;0.80;69.61
60099;BME280;62818;49.394;8.686;2023-03-01T03:55:30;101204.13;;;0.73;70.25
60099;BME280;62818;49.394;8.686;2023-03-01T03:56:31;101202.66;;;0.69;70.19
60099;BME280;62818;49.394;8.686;2023-03-01T03:57:32;101199.88;;;0.72;70.21
60099;BME280;62818;49.394;8.686;2023-03-01T03:58:32;101198.75;;;0.76;70.00
60099;BME280;62818;49.394;8.686;2023-03-01T03:59:33;101196.88;;;0.78;69.86
60099;BME280;62818;49.394;8.686;2023-03-01T04:00:35;101208.16;;;0.79;70.11
60099;BME280;62818;49.394;8.686;2023-03-01T04:01:38;101192.22;;;0.69;70.04
60099;BME280;62818;49.394;8.686;2023-03-01T04:02:39;101196.88;;;0.78;69.69
60099;BME280;62818;49.394;8.686;2023-03-01T04:03:41;101185.41;;;0.81;69.65
60099;BME280;62818;49.394;8.686;2023-03-01T04:04:46;101189.22;;;0.75;69.96
60099;BME280;62818;49.394;8.686;2023-03-01T04:05:52;101183.25;;;0.73;70.36
60099;BME280;62818;49.394;8.686;2023-03-01T04:06:53;101187.19;;;0.66;70.67
60099;BME280;62818;49.394;8.686;2023-03-01T04:07:54;101187.75;;;0.71;69.81
60099;BME280;62818;49.394;8.686;2023-03-01T04:09:07;101180.75;;;0.71;70.36
60099;BME280;62818;49.394;8.686;2023-03-01T04:10:13;101179.91;;;0.71;70.33
60099;BME280;62818;49.394;8.686;2023-03-01T04:11:15;101178.25;;;0.70;70.41
60099;BME280;62818;49.394;8.686;2023-03-01T04:12:28;101175.81;;;0.81;70.22
60099;BME280;62818;49.394;8.686;2023-03-01T04:13:28;101178.25;;;0.70;70.48
60099;BME280;62818;49.394;8.686;2023-03-01T04:14:29;101183.66;;;0.67;70.76
60099;BME280;62818;49.394;8.686;2023-03-01T04:15:30;101179.44;;;0.64;70.67
60099;BME280;62818;49.394;8.686;2023-03-01T04:16:32;101178.25;;;0.70;71.17
60099;BME280;62818;49.394;8.686;2023-03-01T04:17:32;101179.16;;;0.69;70.85
60099;BME280;62818;49.394;8.686;2023-03-01T04:18:36;101182.63;;;0.69;70.99
60099;BME280;62818;49.394;8.686;2023-03-01T04:19:36;101178.25;;;0.70;71.08
60099;BME280;62818;49.394;8.686;2023-03-01T04:20:37;101181.13;;;0.65;70.77
60099;BME280;62818;49.394;8.686;2023-03-01T04:21:38;101182.63;;;0.69;70.95
60099;BME280;62818;49.394;8.686;2023-03-01T04:22:39;101186.81;;;0.72;70.58
60099;BME280;62818;49.394;8.686;2023-03-01T04:23:41;101182.16;;;0.63;71.01
60099;BME280;62818;49.394;8.686;2023-03-01T04:24:41;101187.84;;;0.69;70.74
60099;BME280;62818;49.394;8.686;2023-03-01T04:25:52;101180.09;;;0.96;70.44
60099;BME280;62818;49.394;8.686;2023-03-01T04:26:54;101178.22;;;0.98;70.03
60099;BME280;62818;49.394;8.686;2023-03-01T04:27:54;101187.47;;;0.90;69.90
60099;BME280;62818;49.394;8.686;2023-03-01T04:28:55;101181.41;;;0.89;70.15
60099;BME280;62818;49.394;8.686;2023-03-01T04:29:55;101189.78;;;0.80;70.18
60099;BME280;62818;49.394;8.686;2023-03-01T04:30:57;101188.09;;;1.07;70.51
60099;BME280;62818;49.394;8.686;2023-03-01T04:31:58;101185.38;;;1.09;69.59
60099;BME280;62818;49.394;8.686;2023-03-01T04:32:59;101199.84;;;0.86;69.95
60099;BME280;62818;49.394;8.686;2023-03-01T04:33:59;101192.50;;;0.79;70.71
60099;BME280;62818;49.394;8.686;2023-03-01T04:35:00;101191.38;;;0.83;70.81
60099;BME280;62818;49.394;8.686;2023-03-01T04:36:00;101190.53;;;0.96;70.08
60099;BME280;62818;49.394;8.686;2023-03-01T04:37:05;101192.78;;;0.88;69.73
60099;BME280;62818;49.394;8.686;2023-03-01T04:38:06;101192.88;;;1.01;69.56
60099;BME280;62818;49.394;8.686;2023-03-01T04:39:07;101187.94;;;0.82;69.80
60099;BME280;62818;49.394;8.686;2023-03-01T04:40:12;101196.16;;;0.90;69.79
60099;BME280;62818;49.394;8.686;2023-03-01T04:41:18;101196.97;;;0.77;69.98
60099;BME280;62818;49.394;8.686;2023-03-01T04:42:20;101195.22;;;0.77;70.02
60099;BME280;62818;49.394;8.686;2023-03-01T04:43:21;101191.66;;;0.78;69.86
60099;BME280;62818;49.394;8.686;2023-03-01T04:44:21;101184.00;;;0.89;70.24
60099;BME280;62818;49.394;8.686;2023-03-01T04:45:22;101188.94;;;0.94;69.57
60099;BME280;62818;49.394;8.686;2023-03-01T04:46:23;101185.50;;;0.93;69.16
60099;BME280;62818;49.394;8.686;2023-03-01T04:47:23;101195.97;;;0.79;69.81
60099;BME280;62818;49.394;8.686;2023-03-01T04:48:24;101190.94;;;0.90;69.75
60099;BME280;62818;49.394;8.686;2023-03-01T04:49:24;101191.84;;;0.89;69.47
60099;BME280;62818;49.394;8.686;2023-03-01T04:50:25;101195.31;;;0.90;69.54
60099;BME280;62818;49.394;8.686;2023-03-01T04:51:25;101192.22;;;0.83;69.43
60099;BME280;62818;49.394;8.686;2023-03-01T04:52:26;101201.72;;;0.84;70.07
60099;BME280;62818;49.394;8.686;2023-03-01T04:53:27;101195.41;;;0.74;69.78
60099;BME280;62818;49.394;8.686;2023-03-01T04:54:28;101197.06;;;0.75;69.72
60099;BME280;62818;49.394;8.686;2023-03-01T04:55:29;101196.69;;;0.81;69.48
60099;BME280;62818;49.394;8.686;2023-03-01T04:56:31;101192.78;;;0.88;69.39
60099;BME280;62818;49.394;8.686;2023-03-01T04:57:32;101198.94;;;0.87;69.52
60099;BME280;62818;49.394;8.686;2023-03-01T04:58:33;101191.19;;;0.71;69.80
60099;BME280;62818;49.394;8.686;2023-03-01T04:59:34;101193.69;;;0.73;70.18
60099;BME280;62818;49.394;8.686;2023-03-01T05:00:36;101189.50;;;0.99;69.60
60099;BME280;62818;49.394;8.686;2023-03-01T05:01:36;101198.38;;;0.82;69.09
60099;BME280;62818;49.394;8.686;2023-03-01T05:02:37;101188.09;;;1.07;69.16
60099;BME280;62818;49.394;8.686;2023-03-01T05:03:38;101190.25;;;0.87;69.74
60099;BME280;62818;49.394;8.686;2023-03-01T05:04:43;101185.50;;;0.93;69.59
60099;BME280;62818;49.394;8.686;2023-03-01T05:05:45;101190.50;;;1.24;69.25
60099;BME280;62818;49.394;8.686;2023-03-01T05:06:48;101191.09;;;0.87;68.69
60099;BME280;62818;49.394;8.686;2023-03-01T05:07:48;101193.34;;;0.79;69.44
60099;BME280;62818;49.394;8.686;2023-03-01T05:08:49;101190.81;;;0.77;69.79
60099;BME280;62818;49.394;8.686;2023-03-01T05:09:52;101190.94;;;0.90;70.19
60099;BME280;62818;49.394;8.686;2023-03-01T05:10:54;101188.38;;;0.89;69.94
60099;BME280;62818;49.394;8.686;2023-03-01T05:11:55;101188.13;;;0.79;70.22
60099;BME280;62818;49.394;8.686;2023-03-01T05:12:56;101191.63;;;1.06;69.42
60099;BME280;62818;49.394;8.686;2023-03-01T05:13:57;101188.22;;;0.92;69.68
60099;BME280;62818;49.394;8.686;2023-03-01T05:14:58;101187.09;;;0.82;70.10
60099;BME280;62818;49.394;8.686;2023-03-01T05:16:00;101189.59;;;0.97;69.63
60099;BME280;62818;49.394;8.686;2023-03-01T05:17:01;101184.25;;;1.13;69.69
60099;BME280;62818;49.394;8.686;2023-03-01T05:18:04;101189.03;;;1.06;68.99
60099;BME280;62818;49.394;8.686;2023-03-01T05:19:07;101188.66;;;0.98;69.25
60099;BME280;62818;49.394;8.686;2023-03-01T05:20:15;101186.97;;;0.97;69.65
60099;BME280;62818;49.394;8.686;2023-03-01T05:21:16;101182.44;;;1.01;69.67
60099;BME280;62818;49.394;8.686;2023-03-01T05:22:17;101184.19;;;1.00;69.45
60099;BME280;62818;49.394;8.686;2023-03-01T05:23:19;101180.00;;;1.12;69.74
60099;BME280;62818;49.394;8.686;2023-03-01T05:24:19;101191.34;;;1.11;69.27
60099;BME280;62818;49.394;8.686;2023-03-01T05:25:20;101187.72;;;1.13;69.64
60099;BME280;62818;49.394;8.686;2023-03-01T05:26:21;101191.34;;;1.11;68.92
60099;BME280;62818;49.394;8.686;2023-03-01T05:27:22;101194.25;;;1.20;69.02
60099;BME280;62818;49.394;8.686;2023-03-01T05:28:22;101193.81;;;1.40;68.85
60099;BME280;62818;49.394;8.686;2023-03-01T05:29:25;101191.91;;;1.02;68.63
60099;BME280;62818;49.394;8.686;2023-03-01T05:30:26;101193.84;;;1.26;68.32
60099;BME280;62818;49.394;8.686;2023-03-01T05:31:28;101193.50;;;1.04;68.56
60099;BME280;62818;49.394;8.686;2023-03-01T05:32:30;101191.91;;;1.16;68.46
60099;BME280;62818;49.394;8.686;2023-03-01T05:33:32;101187.56;;;0.88;68.80
60099;BME280;62818;49.394;8.686;2023-03-01T05:34:34;101195.03;;;0.94;68.86
60099;BME280;62818;49.394;8.686;2023-03-01T05:35:36;101193.34;;;0.79;69.72
60099;BME280;62818;49.394;8.686;2023-03-01T05:36:36;101194.84;;;0.83;69.73
60099;BME280;62818;49.394;8.686;2023-03-01T05:37:42;101186.81;;;0.86;69.88
60099;BME280;62818;49.394;8.686;2023-03-01T05:38:44;101193.78;;;1.14;69.47